sensor_id;sensor_type;location;lat;lon;timestamp;temperature;humidity
13164;DHT22;6647;53.688;10.746;2022-08-25T00:00:53;20.80;1.00
13164;DHT22;6647;53.688;10.746;2022-08-25T00:02:14;20.80;1.00
13164;DHT22;6647;53.688;10.746;2022-08-25T00:03:34;20.70;1.00
13164;DHT22;6647;53.688;10.746;2022-08-25T00:04:55;20.70;1.00
13164;DHT22;6647;53.688;10.746;2022-08-25T00:06:16;20.70;1.00
13164;DHT22;6647;53.688;10.746;2022-08-25T00:07:37;20.70;1.00
13164;DHT22;6647;53.688;10.746;2022-08-25T00:08:58;20.70;1.00
13164;DHT22;6647;53.688;10.746;2022-08-25T00:10:19;20.80;1.00
13164;DHT22;6647;53.688;10.746;2022-08-25T00:11:42;20.80;1.00
13164;DHT22;6647;53.688;10.746;2022-08-25T00:13:04;20.80;1.00
13164;DHT22;6647;53.688;10.746;2022-08-25T00:14:32;20.80;1.00
13164;DHT22;6647;53.688;10.746;2022-08-25T00:15:54;20.80;1.00
13164;DHT22;6647;53.688;10.746;2022-08-25T00:17:15;20.80;1.00
13164;DHT22;6647;53.688;10.746;2022-08-25T00:18:37;20.80;1.00
13164;DHT22;6647;53.688;10.746;2022-08-25T00:19:58;20.80;1.00
13164;DHT22;6647;53.688;10.746;2022-08-25T00:21:19;20.80;1.00
13164;DHT22;6647;53.688;10.746;2022-08-25T00:22:41;20.80;1.00
13164;DHT22;6647;53.688;10.746;2022-08-25T00:24:02;20.80;1.00
13164;DHT22;6647;53.688;10.746;2022-08-25T00:25:23;20.80;1.00
13164;DHT22;6647;53.688;10.746;2022-08-25T00:26:46;20.80;1.00
13164;DHT22;6647;53.688;10.746;2022-08-25T00:28:08;20.80;1.00
13164;DHT22;6647;53.688;10.746;2022-08-25T00:29:30;20.80;1.00
13164;DHT22;6647;53.688;10.746;2022-08-25T00:30:52;20.80;1.00
13164;DHT22;6647;53.688;10.746;2022-08-25T00:32:12;20.80;1.00
13164;DHT22;6647;53.688;10.746;2022-08-25T00:33:33;20.80;1.00
13164;DHT22;6647;53.688;10.746;2022-08-25T00:34:54;20.80;1.00
13164;DHT22;6647;53.688;10.746;2022-08-25T00:36:16;20.80;1.00
13164;DHT22;6647;53.688;10.746;2022-08-25T00:37:38;20.80;1.00
13164;DHT22;6647;53.688;10.746;2022-08-25T00:38:59;20.80;1.00
13164;DHT22;6647;53.688;10.746;2022-08-25T00:40:21;20.80;1.00
13164;DHT22;6647;53.688;10.746;2022-08-25T00:41:43;20.80;1.00
13164;DHT22;6647;53.688;10.746;2022-08-25T00:43:05;20.80;1.00
13164;DHT22;6647;53.688;10.746;2022-08-25T00:44:29;20.80;1.00
13164;DHT22;6647;53.688;10.746;2022-08-25T00:45:50;20.80;1.00
13164;DHT22;6647;53.688;10.746;2022-08-25T00:47:11;20.80;1.00
13164;DHT22;6647;53.688;10.746;2022-08-25T00:48:32;20.80;1.00
13164;DHT22;6647;53.688;10.746;2022-08-25T00:49:56;20.80;1.00
13164;DHT22;6647;53.688;10.746;2022-08-25T00:51:33;20.80;1.00
13164;DHT22;6647;53.688;10.746;2022-08-25T00:52:57;20.80;1.00
13164;DHT22;6647;53.688;10.746;2022-08-25T00:54:23;20.80;1.00
13164;DHT22;6647;53.688;10.746;2022-08-25T00:55:44;20.80;1.00
13164;DHT22;6647;53.688;10.746;2022-08-25T00:57:07;20.80;1.00
13164;DHT22;6647;53.688;10.746;2022-08-25T00:58:29;20.80;1.00
13164;DHT22;6647;53.688;10.746;2022-08-25T00:59:51;20.80;1.00
13164;DHT22;6647;53.688;10.746;2022-08-25T01:01:12;20.80;1.00
13164;DHT22;6647;53.688;10.746;2022-08-25T01:02:33;20.70;1.00
13164;DHT22;6647;53.688;10.746;2022-08-25T01:03:54;20.80;1.00
13164;DHT22;6647;53.688;10.746;2022-08-25T01:05:16;20.70;1.00
13164;DHT22;6647;53.688;10.746;2022-08-25T01:06:40;20.70;1.00
13164;DHT22;6647;53.688;10.746;2022-08-25T01:08:03;20.70;1.00
13164;DHT22;6647;53.688;10.746;2022-08-25T01:09:28;20.70;1.00
13164;DHT22;6647;53.688;10.746;2022-08-25T01:10:51;20.70;1.00
13164;DHT22;6647;53.688;10.746;2022-08-25T01:12:12;20.70;1.00
13164;DHT22;6647;53.688;10.746;2022-08-25T01:13:53;20.60;1.00
13164;DHT22;6647;53.688;10.746;2022-08-25T01:15:15;20.60;1.00
13164;DHT22;6647;53.688;10.746;2022-08-25T01:16:38;20.60;1.00
13164;DHT22;6647;53.688;10.746;2022-08-25T01:18:00;20.50;1.00
13164;DHT22;6647;53.688;10.746;2022-08-25T01:19:21;20.50;1.00
13164;DHT22;6647;53.688;10.746;2022-08-25T01:20:42;20.50;1.00
13164;DHT22;6647;53.688;10.746;2022-08-25T01:22:03;20.50;1.00
13164;DHT22;6647;53.688;10.746;2022-08-25T01:23:25;20.50;1.00
13164;DHT22;6647;53.688;10.746;2022-08-25T01:26:20;20.50;1.00
13164;DHT22;6647;53.688;10.746;2022-08-25T01:27:41;20.50;1.00
13164;DHT22;6647;53.688;10.746;2022-08-25T01:29:06;20.40;1.00
13164;DHT22;6647;53.688;10.746;2022-08-25T01:30:45;20.40;1.00
13164;DHT22;6647;53.688;10.746;2022-08-25T01:32:09;20.40;1.00
13164;DHT22;6647;53.688;10.746;2022-08-25T01:33:30;20.40;1.00
13164;DHT22;6647;53.688;10.746;2022-08-25T01:34:51;20.40;1.00
13164;DHT22;6647;53.688;10.746;2022-08-25T01:36:17;20.40;1.00
13164;DHT22;6647;53.688;10.746;2022-08-25T01:37:38;20.40;1.00
13164;DHT22;6647;53.688;10.746;2022-08-25T01:38:59;20.40;1.00
13164;DHT22;6647;53.688;10.746;2022-08-25T01:40:20;20.40;1.00
13164;DHT22;6647;53.688;10.746;2022-08-25T01:43:36;20.40;1.00
13164;DHT22;6647;53.688;10.746;2022-08-25T01:44:57;20.40;1.00
13164;DHT22;6647;53.688;10.746;2022-08-25T01:46:18;20.40;1.00
13164;DHT22;6647;53.688;10.746;2022-08-25T01:47:39;20.30;1.00
13164;DHT22;6647;53.688;10.746;2022-08-25T01:49:01;20.30;1.00
13164;DHT22;6647;53.688;10.746;2022-08-25T01:50:23;20.30;1.00
13164;DHT22;6647;53.688;10.746;2022-08-25T01:51:52;20.30;1.00
13164;DHT22;6647;53.688;10.746;2022-08-25T01:53:25;20.20;1.00
13164;DHT22;6647;53.688;10.746;2022-08-25T01:54:46;20.20;1.00
13164;DHT22;6647;53.688;10.746;2022-08-25T01:56:13;20.20;1.00
13164;DHT22;6647;53.688;10.746;2022-08-25T01:57:34;20.20;1.00
13164;DHT22;6647;53.688;10.746;2022-08-25T01:58:55;20.20;1.00
13164;DHT22;6647;53.688;10.746;2022-08-25T02:00:17;20.20;1.00
13164;DHT22;6647;53.688;10.746;2022-08-25T02:01:38;20.20;1.00
13164;DHT22;6647;53.688;10.746;2022-08-25T02:02:59;20.20;1.00
13164;DHT22;6647;53.688;10.746;2022-08-25T02:04:20;20.20;1.00
13164;DHT22;6647;53.688;10.746;2022-08-25T02:05:41;20.20;1.00
13164;DHT22;6647;53.688;10.746;2022-08-25T02:07:05;20.20;1.00
13164;DHT22;6647;53.688;10.746;2022-08-25T02:08:26;20.20;1.00
13164;DHT22;6647;53.688;10.746;2022-08-25T02:09:47;20.20;1.00
13164;DHT22;6647;53.688;10.746;2022-08-25T02:11:12;20.20;1.00
13164;DHT22;6647;53.688;10.746;2022-08-25T02:12:34;20.20;1.00
13164;DHT22;6647;53.688;10.746;2022-08-25T02:13:55;20.20;1.00
13164;DHT22;6647;53.688;10.746;2022-08-25T02:15:16;20.10;1.00
13164;DHT22;6647;53.688;10.746;2022-08-25T02:16:39;20.10;1.00
13164;DHT22;6647;53.688;10.746;2022-08-25T02:18:00;20.10;1.00
13164;DHT22;6647;53.688;10.746;2022-08-25T02:19:22;20.10;1.00
13164;DHT22;6647;53.688;10.746;2022-08-25T02:20:44;20.10;1.00
13164;DHT22;6647;53.688;10.746;2022-08-25T02:22:05;20.00;1.00
13164;DHT22;6647;53.688;10.746;2022-08-25T02:23:26;20.00;1.00
13164;DHT22;6647;53.688;10.746;2022-08-25T02:24:47;19.90;1.00
13164;DHT22;6647;53.688;10.746;2022-08-25T02:26:08;19.90;1.00
13164;DHT22;6647;53.688;10.746;2022-08-25T02:27:29;19.90;1.00
13164;DHT22;6647;53.688;10.746;2022-08-25T02:28:51;19.90;1.00
13164;DHT22;6647;53.688;10.746;2022-08-25T02:30:13;19.90;1.00
13164;DHT22;6647;53.688;10.746;2022-08-25T02:31:35;19.80;1.00
13164;DHT22;6647;53.688;10.746;2022-08-25T02:32:56;19.80;1.00
13164;DHT22;6647;53.688;10.746;2022-08-25T02:34:17;19.80;1.00
13164;DHT22;6647;53.688;10.746;2022-08-25T02:35:38;19.80;1.00
13164;DHT22;6647;53.688;10.746;2022-08-25T02:36:59;19.70;1.00
13164;DHT22;6647;53.688;10.746;2022-08-25T02:38:20;19.70;1.00
13164;DHT22;6647;53.688;10.746;2022-08-25T02:39:41;19.70;1.00
13164;DHT22;6647;53.688;10.746;2022-08-25T02:41:09;19.60;1.00
13164;DHT22;6647;53.688;10.746;2022-08-25T02:42:32;19.60;1.00
13164;DHT22;6647;53.688;10.746;2022-08-25T02:43:53;19.60;1.00
13164;DHT22;6647;53.688;10.746;2022-08-25T02:45:15;19.60;1.00
13164;DHT22;6647;53.688;10.746;2022-08-25T02:46:37;19.60;1.00
13164;DHT22;6647;53.688;10.746;2022-08-25T02:47:58;19.60;1.00
13164;DHT22;6647;53.688;10.746;2022-08-25T02:49:19;19.60;1.00
13164;DHT22;6647;53.688;10.746;2022-08-25T02:50:40;19.50;1.00
13164;DHT22;6647;53.688;10.746;2022-08-25T02:52:05;19.50;1.00
13164;DHT22;6647;53.688;10.746;2022-08-25T02:53:28;19.50;1.00
13164;DHT22;6647;53.688;10.746;2022-08-25T02:54:49;19.50;1.00
13164;DHT22;6647;53.688;10.746;2022-08-25T02:56:11;19.60;1.00
13164;DHT22;6647;53.688;10.746;2022-08-25T02:57:32;19.60;1.00
13164;DHT22;6647;53.688;10.746;2022-08-25T02:58:53;19.60;1.00
13164;DHT22;6647;53.688;10.746;2022-08-25T03:00:15;19.50;1.00
13164;DHT22;6647;53.688;10.746;2022-08-25T03:01:36;19.50;1.00
13164;DHT22;6647;53.688;10.746;2022-08-25T03:02:57;19.50;1.00
13164;DHT22;6647;53.688;10.746;2022-08-25T03:04:18;19.50;1.00
13164;DHT22;6647;53.688;10.746;2022-08-25T03:05:39;19.50;1.00
13164;DHT22;6647;53.688;10.746;2022-08-25T03:07:00;19.40;1.00
13164;DHT22;6647;53.688;10.746;2022-08-25T03:08:21;19.40;1.00
13164;DHT22;6647;53.688;10.746;2022-08-25T03:09:42;19.30;1.00
13164;DHT22;6647;53.688;10.746;2022-08-25T03:11:05;19.30;1.00
13164;DHT22;6647;53.688;10.746;2022-08-25T03:12:26;19.30;1.00
13164;DHT22;6647;53.688;10.746;2022-08-25T03:13:47;19.20;1.00
13164;DHT22;6647;53.688;10.746;2022-08-25T03:15:12;19.20;1.00
13164;DHT22;6647;53.688;10.746;2022-08-25T03:16:35;19.20;1.00
13164;DHT22;6647;53.688;10.746;2022-08-25T03:17:56;19.20;1.00
13164;DHT22;6647;53.688;10.746;2022-08-25T03:19:17;19.20;1.00
13164;DHT22;6647;53.688;10.746;2022-08-25T03:20:38;19.10;1.00
13164;DHT22;6647;53.688;10.746;2022-08-25T03:21:59;19.10;1.00
13164;DHT22;6647;53.688;10.746;2022-08-25T03:23:20;19.20;1.00
13164;DHT22;6647;53.688;10.746;2022-08-25T03:24:41;19.20;1.00
13164;DHT22;6647;53.688;10.746;2022-08-25T03:26:02;19.10;1.00
13164;DHT22;6647;53.688;10.746;2022-08-25T03:27:41;19.10;1.00
13164;DHT22;6647;53.688;10.746;2022-08-25T03:29:02;19.10;1.00
13164;DHT22;6647;53.688;10.746;2022-08-25T03:30:26;19.10;1.00
13164;DHT22;6647;53.688;10.746;2022-08-25T03:31:47;19.10;1.00
13164;DHT22;6647;53.688;10.746;2022-08-25T03:33:09;19.10;1.00
13164;DHT22;6647;53.688;10.746;2022-08-25T03:34:30;19.10;1.00
13164;DHT22;6647;53.688;10.746;2022-08-25T03:35:51;19.00;1.00
13164;DHT22;6647;53.688;10.746;2022-08-25T03:37:12;19.00;1.00
13164;DHT22;6647;53.688;10.746;2022-08-25T03:38:33;19.00;1.00
13164;DHT22;6647;53.688;10.746;2022-08-25T03:39:54;19.10;1.00
13164;DHT22;6647;53.688;10.746;2022-08-25T03:41:18;19.10;1.00
13164;DHT22;6647;53.688;10.746;2022-08-25T03:42:42;19.10;1.00
13164;DHT22;6647;53.688;10.746;2022-08-25T03:44:05;19.10;1.00
13164;DHT22;6647;53.688;10.746;2022-08-25T03:45:26;19.00;1.00
13164;DHT22;6647;53.688;10.746;2022-08-25T03:46:49;19.00;1.00
13164;DHT22;6647;53.688;10.746;2022-08-25T03:48:11;18.90;1.00
13164;DHT22;6647;53.688;10.746;2022-08-25T03:49:32;18.80;1.00
13164;DHT22;6647;53.688;10.746;2022-08-25T03:50:53;18.80;1.00
13164;DHT22;6647;53.688;10.746;2022-08-25T03:52:14;18.70;1.00
13164;DHT22;6647;53.688;10.746;2022-08-25T03:53:36;18.70;1.00
13164;DHT22;6647;53.688;10.746;2022-08-25T03:54:57;18.70;1.00
13164;DHT22;6647;53.688;10.746;2022-08-25T03:56:18;18.70;1.00
13164;DHT22;6647;53.688;10.746;2022-08-25T03:57:39;18.70;1.00
13164;DHT22;6647;53.688;10.746;2022-08-25T03:59:00;18.60;1.00
13164;DHT22;6647;53.688;10.746;2022-08-25T04:00:22;18.60;1.00
13164;DHT22;6647;53.688;10.746;2022-08-25T04:01:44;18.60;1.00
13164;DHT22;6647;53.688;10.746;2022-08-25T04:03:05;18.50;1.00
13164;DHT22;6647;53.688;10.746;2022-08-25T04:04:26;18.50;1.00
13164;DHT22;6647;53.688;10.746;2022-08-25T04:05:47;18.50;1.00
13164;DHT22;6647;53.688;10.746;2022-08-25T04:07:08;18.50;1.00
13164;DHT22;6647;53.688;10.746;2022-08-25T04:08:29;18.60;1.00
13164;DHT22;6647;53.688;10.746;2022-08-25T04:09:53;18.60;1.00
13164;DHT22;6647;53.688;10.746;2022-08-25T04:11:21;18.60;1.00
13164;DHT22;6647;53.688;10.746;2022-08-25T04:12:42;18.60;1.00
13164;DHT22;6647;53.688;10.746;2022-08-25T04:14:06;18.60;1.00
13164;DHT22;6647;53.688;10.746;2022-08-25T04:15:27;18.60;1.00
13164;DHT22;6647;53.688;10.746;2022-08-25T04:16:49;18.60;1.00
13164;DHT22;6647;53.688;10.746;2022-08-25T04:18:10;18.60;1.00
13164;DHT22;6647;53.688;10.746;2022-08-25T04:19:31;18.60;1.00
13164;DHT22;6647;53.688;10.746;2022-08-25T04:21:01;18.70;1.00
13164;DHT22;6647;53.688;10.746;2022-08-25T04:22:22;18.70;1.00
13164;DHT22;6647;53.688;10.746;2022-08-25T04:23:44;18.70;1.00
13164;DHT22;6647;53.688;10.746;2022-08-25T04:25:06;18.70;1.00
13164;DHT22;6647;53.688;10.746;2022-08-25T04:26:30;18.70;1.00
13164;DHT22;6647;53.688;10.746;2022-08-25T04:27:52;18.60;1.00
13164;DHT22;6647;53.688;10.746;2022-08-25T04:29:21;18.60;1.00
13164;DHT22;6647;53.688;10.746;2022-08-25T04:30:42;18.60;1.00
13164;DHT22;6647;53.688;10.746;2022-08-25T04:32:03;18.70;1.00
13164;DHT22;6647;53.688;10.746;2022-08-25T04:33:24;18.60;1.00
13164;DHT22;6647;53.688;10.746;2022-08-25T04:34:45;18.60;1.00
13164;DHT22;6647;53.688;10.746;2022-08-25T04:36:07;18.60;1.00
13164;DHT22;6647;53.688;10.746;2022-08-25T04:37:28;18.60;1.00
13164;DHT22;6647;53.688;10.746;2022-08-25T04:38:49;18.60;1.00
13164;DHT22;6647;53.688;10.746;2022-08-25T04:40:11;18.60;1.00
13164;DHT22;6647;53.688;10.746;2022-08-25T04:41:32;18.60;1.00
13164;DHT22;6647;53.688;10.746;2022-08-25T04:42:53;18.60;1.00
13164;DHT22;6647;53.688;10.746;2022-08-25T04:44:13;18.70;1.00
13164;DHT22;6647;53.688;10.746;2022-08-25T04:45:38;18.70;1.00
13164;DHT22;6647;53.688;10.746;2022-08-25T04:47:00;18.70;1.00
13164;DHT22;6647;53.688;10.746;2022-08-25T04:48:21;18.70;1.00
13164;DHT22;6647;53.688;10.746;2022-08-25T04:49:42;18.70;1.00
13164;DHT22;6647;53.688;10.746;2022-08-25T04:51:05;18.80;1.00
13164;DHT22;6647;53.688;10.746;2022-08-25T04:52:26;18.80;1.00
13164;DHT22;6647;53.688;10.746;2022-08-25T04:53:47;18.80;1.00
13164;DHT22;6647;53.688;10.746;2022-08-25T04:55:08;18.80;1.00
13164;DHT22;6647;53.688;10.746;2022-08-25T04:56:29;18.80;1.00
13164;DHT22;6647;53.688;10.746;2022-08-25T04:57:50;18.70;1.00
13164;DHT22;6647;53.688;10.746;2022-08-25T04:59:13;18.80;1.00
13164;DHT22;6647;53.688;10.746;2022-08-25T05:00:35;18.80;1.00
13164;DHT22;6647;53.688;10.746;2022-08-25T05:01:57;18.80;1.00
13164;DHT22;6647;53.688;10.746;2022-08-25T05:03:18;18.80;1.00
13164;DHT22;6647;53.688;10.746;2022-08-25T05:04:39;18.80;1.00
13164;DHT22;6647;53.688;10.746;2022-08-25T05:06:01;18.80;1.00
13164;DHT22;6647;53.688;10.746;2022-08-25T05:07:22;18.80;1.00
13164;DHT22;6647;53.688;10.746;2022-08-25T05:08:43;18.80;1.00
13164;DHT22;6647;53.688;10.746;2022-08-25T05:10:04;18.80;1.00
13164;DHT22;6647;53.688;10.746;2022-08-25T05:11:25;18.80;1.00
13164;DHT22;6647;53.688;10.746;2022-08-25T05:12:46;18.80;1.00
13164;DHT22;6647;53.688;10.746;2022-08-25T05:14:07;18.80;1.00
13164;DHT22;6647;53.688;10.746;2022-08-25T05:15:31;18.80;1.00
13164;DHT22;6647;53.688;10.746;2022-08-25T05:17:10;18.80;1.00
13164;DHT22;6647;53.688;10.746;2022-08-25T05:18:32;18.80;1.00
13164;DHT22;6647;53.688;10.746;2022-08-25T05:19:53;18.90;1.00
13164;DHT22;6647;53.688;10.746;2022-08-25T05:21:20;18.90;1.00
13164;DHT22;6647;53.688;10.746;2022-08-25T05:22:44;18.90;1.00
13164;DHT22;6647;53.688;10.746;2022-08-25T05:24:06;18.90;1.00
13164;DHT22;6647;53.688;10.746;2022-08-25T05:25:27;18.90;1.00
13164;DHT22;6647;53.688;10.746;2022-08-25T05:26:48;18.90;1.00
13164;DHT22;6647;53.688;10.746;2022-08-25T05:28:10;18.90;1.00
13164;DHT22;6647;53.688;10.746;2022-08-25T05:29:31;18.80;1.00
13164;DHT22;6647;53.688;10.746;2022-08-25T05:30:57;18.80;1.00
13164;DHT22;6647;53.688;10.746;2022-08-25T05:32:18;18.80;1.00
13164;DHT22;6647;53.688;10.746;2022-08-25T05:33:41;18.80;1.00
13164;DHT22;6647;53.688;10.746;2022-08-25T05:35:03;18.80;1.00
13164;DHT22;6647;53.688;10.746;2022-08-25T05:36:25;18.80;1.00
13164;DHT22;6647;53.688;10.746;2022-08-25T05:37:46;18.80;1.00
13164;DHT22;6647;53.688;10.746;2022-08-25T05:39:07;18.80;1.00
13164;DHT22;6647;53.688;10.746;2022-08-25T05:40:29;18.80;1.00
13164;DHT22;6647;53.688;10.746;2022-08-25T05:41:50;18.80;1.00
13164;DHT22;6647;53.688;10.746;2022-08-25T05:43:11;18.80;1.00
13164;DHT22;6647;53.688;10.746;2022-08-25T05:44:34;18.80;1.00
13164;DHT22;6647;53.688;10.746;2022-08-25T05:45:56;18.80;1.00
13164;DHT22;6647;53.688;10.746;2022-08-25T05:47:17;18.70;1.00
13164;DHT22;6647;53.688;10.746;2022-08-25T05:48:38;18.70;1.00
13164;DHT22;6647;53.688;10.746;2022-08-25T05:49:59;18.70;1.00
13164;DHT22;6647;53.688;10.746;2022-08-25T05:51:21;18.70;1.00
13164;DHT22;6647;53.688;10.746;2022-08-25T05:52:42;18.70;1.00
13164;DHT22;6647;53.688;10.746;2022-08-25T05:54:03;18.70;1.00
13164;DHT22;6647;53.688;10.746;2022-08-25T05:55:25;18.70;1.00
13164;DHT22;6647;53.688;10.746;2022-08-25T05:56:45;18.80;1.00
13164;DHT22;6647;53.688;10.746;2022-08-25T05:58:07;18.80;1.00
13164;DHT22;6647;53.688;10.746;2022-08-25T05:59:30;18.80;1.00
13164;DHT22;6647;53.688;10.746;2022-08-25T06:00:51;18.80;1.00
13164;DHT22;6647;53.688;10.746;2022-08-25T06:02:12;18.80;1.00
13164;DHT22;6647;53.688;10.746;2022-08-25T06:03:52;18.80;1.00
13164;DHT22;6647;53.688;10.746;2022-08-25T06:05:17;18.80;1.00
13164;DHT22;6647;53.688;10.746;2022-08-25T06:06:39;18.80;1.00
13164;DHT22;6647;53.688;10.746;2022-08-25T06:08:00;18.70;1.00
13164;DHT22;6647;53.688;10.746;2022-08-25T06:09:21;18.70;1.00
13164;DHT22;6647;53.688;10.746;2022-08-25T06:10:42;18.80;1.00
13164;DHT22;6647;53.688;10.746;2022-08-25T06:12:02;18.80;1.00
13164;DHT22;6647;53.688;10.746;2022-08-25T06:13:23;18.80;1.00
13164;DHT22;6647;53.688;10.746;2022-08-25T06:14:44;18.80;1.00
13164;DHT22;6647;53.688;10.746;2022-08-25T06:16:05;18.80;1.00
13164;DHT22;6647;53.688;10.746;2022-08-25T06:17:26;18.90;1.00
13164;DHT22;6647;53.688;10.746;2022-08-25T06:18:47;18.90;1.00
13164;DHT22;6647;53.688;10.746;2022-08-25T06:20:11;18.90;1.00
13164;DHT22;6647;53.688;10.746;2022-08-25T06:21:32;18.90;1.00
13164;DHT22;6647;53.688;10.746;2022-08-25T06:22:53;19.00;1.00
13164;DHT22;6647;53.688;10.746;2022-08-25T06:24:15;19.00;1.00
13164;DHT22;6647;53.688;10.746;2022-08-25T06:25:36;19.00;1.00
13164;DHT22;6647;53.688;10.746;2022-08-25T06:26:57;19.10;1.00
13164;DHT22;6647;53.688;10.746;2022-08-25T06:28:19;19.10;1.00
13164;DHT22;6647;53.688;10.746;2022-08-25T06:29:40;19.10;1.00
13164;DHT22;6647;53.688;10.746;2022-08-25T06:31:01;19.20;1.00
13164;DHT22;6647;53.688;10.746;2022-08-25T06:32:23;19.20;1.00
13164;DHT22;6647;53.688;10.746;2022-08-25T06:33:44;19.20;1.00
13164;DHT22;6647;53.688;10.746;2022-08-25T06:35:07;19.20;1.00
13164;DHT22;6647;53.688;10.746;2022-08-25T06:36:28;19.20;1.00
13164;DHT22;6647;53.688;10.746;2022-08-25T06:37:49;19.20;1.00
13164;DHT22;6647;53.688;10.746;2022-08-25T06:39:10;19.20;1.00
13164;DHT22;6647;53.688;10.746;2022-08-25T06:40:31;19.20;1.00
13164;DHT22;6647;53.688;10.746;2022-08-25T06:41:53;19.30;1.00
13164;DHT22;6647;53.688;10.746;2022-08-25T06:43:14;19.30;1.00
13164;DHT22;6647;53.688;10.746;2022-08-25T06:44:35;19.30;1.00
13164;DHT22;6647;53.688;10.746;2022-08-25T06:45:56;19.30;1.00
13164;DHT22;6647;53.688;10.746;2022-08-25T06:47:18;19.30;1.00
13164;DHT22;6647;53.688;10.746;2022-08-25T06:48:39;19.30;1.00
13164;DHT22;6647;53.688;10.746;2022-08-25T06:50:00;19.30;1.00
13164;DHT22;6647;53.688;10.746;2022-08-25T06:51:24;19.30;1.00
13164;DHT22;6647;53.688;10.746;2022-08-25T06:52:46;19.40;1.00
13164;DHT22;6647;53.688;10.746;2022-08-25T06:54:08;19.30;1.00
13164;DHT22;6647;53.688;10.746;2022-08-25T06:55:32;19.30;1.00
13164;DHT22;6647;53.688;10.746;2022-08-25T06:56:54;19.30;1.00
13164;DHT22;6647;53.688;10.746;2022-08-25T06:58:15;19.40;1.00
13164;DHT22;6647;53.688;10.746;2022-08-25T06:59:37;19.40;1.00
13164;DHT22;6647;53.688;10.746;2022-08-25T07:01:08;19.40;1.00
13164;DHT22;6647;53.688;10.746;2022-08-25T07:02:29;19.40;1.00
13164;DHT22;6647;53.688;10.746;2022-08-25T07:03:52;19.40;1.00
13164;DHT22;6647;53.688;10.746;2022-08-25T07:05:14;19.40;1.00
13164;DHT22;6647;53.688;10.746;2022-08-25T07:06:35;19.50;1.00
13164;DHT22;6647;53.688;10.746;2022-08-25T07:07:56;19.40;1.00
13164;DHT22;6647;53.688;10.746;2022-08-25T07:09:17;19.40;1.00
13164;DHT22;6647;53.688;10.746;2022-08-25T07:10:38;19.40;1.00
13164;DHT22;6647;53.688;10.746;2022-08-25T07:11:59;19.50;1.00
13164;DHT22;6647;53.688;10.746;2022-08-25T07:13:22;19.50;1.00
13164;DHT22;6647;53.688;10.746;2022-08-25T07:14:43;19.40;1.00
13164;DHT22;6647;53.688;10.746;2022-08-25T07:16:04;19.50;1.00
13164;DHT22;6647;53.688;10.746;2022-08-25T07:17:26;19.50;1.00
13164;DHT22;6647;53.688;10.746;2022-08-25T07:18:47;19.60;1.00
13164;DHT22;6647;53.688;10.746;2022-08-25T07:20:08;19.60;1.00
13164;DHT22;6647;53.688;10.746;2022-08-25T07:21:30;19.70;1.00
13164;DHT22;6647;53.688;10.746;2022-08-25T07:22:52;19.70;1.00
13164;DHT22;6647;53.688;10.746;2022-08-25T07:24:13;19.70;1.00
13164;DHT22;6647;53.688;10.746;2022-08-25T07:25:34;19.70;1.00
13164;DHT22;6647;53.688;10.746;2022-08-25T07:26:55;19.80;1.00
13164;DHT22;6647;53.688;10.746;2022-08-25T07:28:16;19.80;1.00
13164;DHT22;6647;53.688;10.746;2022-08-25T07:29:37;19.80;1.00
13164;DHT22;6647;53.688;10.746;2022-08-25T07:30:58;19.80;1.00
13164;DHT22;6647;53.688;10.746;2022-08-25T07:32:21;19.90;1.00
13164;DHT22;6647;53.688;10.746;2022-08-25T07:33:42;19.90;1.00
13164;DHT22;6647;53.688;10.746;2022-08-25T07:35:23;19.90;1.00
13164;DHT22;6647;53.688;10.746;2022-08-25T07:36:45;20.00;1.00
13164;DHT22;6647;53.688;10.746;2022-08-25T07:38:06;20.10;1.00
13164;DHT22;6647;53.688;10.746;2022-08-25T07:39:27;20.10;1.00
13164;DHT22;6647;53.688;10.746;2022-08-25T07:40:48;20.20;1.00
13164;DHT22;6647;53.688;10.746;2022-08-25T07:42:14;20.20;1.00
13164;DHT22;6647;53.688;10.746;2022-08-25T07:43:35;20.30;1.00
13164;DHT22;6647;53.688;10.746;2022-08-25T07:44:56;20.30;1.00
13164;DHT22;6647;53.688;10.746;2022-08-25T07:46:17;20.40;1.00
13164;DHT22;6647;53.688;10.746;2022-08-25T07:47:38;20.40;1.00
13164;DHT22;6647;53.688;10.746;2022-08-25T07:48:59;20.50;1.00
13164;DHT22;6647;53.688;10.746;2022-08-25T07:50:20;20.50;1.00
13164;DHT22;6647;53.688;10.746;2022-08-25T07:51:41;20.60;1.00
13164;DHT22;6647;53.688;10.746;2022-08-25T07:53:02;20.70;1.00
13164;DHT22;6647;53.688;10.746;2022-08-25T07:54:23;20.80;1.00
13164;DHT22;6647;53.688;10.746;2022-08-25T07:55:46;20.80;1.00
13164;DHT22;6647;53.688;10.746;2022-08-25T07:57:08;20.90;1.00
13164;DHT22;6647;53.688;10.746;2022-08-25T07:58:29;20.90;1.00
13164;DHT22;6647;53.688;10.746;2022-08-25T07:59:51;20.90;1.00
13164;DHT22;6647;53.688;10.746;2022-08-25T08:01:17;21.00;1.00
13164;DHT22;6647;53.688;10.746;2022-08-25T08:02:40;21.00;1.00
13164;DHT22;6647;53.688;10.746;2022-08-25T08:04:02;21.00;1.00
13164;DHT22;6647;53.688;10.746;2022-08-25T08:05:24;21.00;1.00
13164;DHT22;6647;53.688;10.746;2022-08-25T08:06:46;21.00;1.00
13164;DHT22;6647;53.688;10.746;2022-08-25T08:08:07;21.10;1.00
13164;DHT22;6647;53.688;10.746;2022-08-25T08:09:27;21.10;1.00
13164;DHT22;6647;53.688;10.746;2022-08-25T08:10:50;21.20;1.00
13164;DHT22;6647;53.688;10.746;2022-08-25T08:12:12;21.30;1.00
13164;DHT22;6647;53.688;10.746;2022-08-25T08:13:33;21.40;1.00
13164;DHT22;6647;53.688;10.746;2022-08-25T08:14:54;21.40;1.00
13164;DHT22;6647;53.688;10.746;2022-08-25T08:16:17;21.40;1.00
13164;DHT22;6647;53.688;10.746;2022-08-25T08:17:39;21.50;1.00
13164;DHT22;6647;53.688;10.746;2022-08-25T08:19:00;21.60;1.00
13164;DHT22;6647;53.688;10.746;2022-08-25T08:20:22;21.60;1.00
13164;DHT22;6647;53.688;10.746;2022-08-25T08:21:43;21.70;1.00
13164;DHT22;6647;53.688;10.746;2022-08-25T08:23:04;21.80;1.00
13164;DHT22;6647;53.688;10.746;2022-08-25T08:24:28;21.80;1.00
13164;DHT22;6647;53.688;10.746;2022-08-25T08:25:49;21.90;1.00
13164;DHT22;6647;53.688;10.746;2022-08-25T08:27:11;21.90;1.00
13164;DHT22;6647;53.688;10.746;2022-08-25T08:28:33;21.90;1.00
13164;DHT22;6647;53.688;10.746;2022-08-25T08:29:54;22.00;1.00
13164;DHT22;6647;53.688;10.746;2022-08-25T08:31:15;22.10;1.00
13164;DHT22;6647;53.688;10.746;2022-08-25T08:32:39;22.10;1.00
13164;DHT22;6647;53.688;10.746;2022-08-25T08:33:59;22.20;1.00
13164;DHT22;6647;53.688;10.746;2022-08-25T08:35:20;22.20;1.00
13164;DHT22;6647;53.688;10.746;2022-08-25T08:36:41;22.30;1.00
13164;DHT22;6647;53.688;10.746;2022-08-25T08:38:02;22.30;1.00
13164;DHT22;6647;53.688;10.746;2022-08-25T08:39:24;22.40;1.00
13164;DHT22;6647;53.688;10.746;2022-08-25T08:41:04;22.40;1.00
13164;DHT22;6647;53.688;10.746;2022-08-25T08:42:55;22.50;1.00
13164;DHT22;6647;53.688;10.746;2022-08-25T08:44:40;22.60;1.00
13164;DHT22;6647;53.688;10.746;2022-08-25T08:46:02;22.70;1.00
13164;DHT22;6647;53.688;10.746;2022-08-25T08:47:45;22.70;1.00
13164;DHT22;6647;53.688;10.746;2022-08-25T08:49:38;22.80;1.00
13164;DHT22;6647;53.688;10.746;2022-08-25T08:52:41;22.90;1.00
13164;DHT22;6647;53.688;10.746;2022-08-25T08:54:13;22.90;1.00